KIPL/IPL METAR and TAF weather

Enter ICAO airport designator
Station Type Date Time Source
KIPL METAR 2020/11/28 19:53 UTC NOAA

KIPL 281953Z AUTO 00000KT 10SM CLR 20/M07 A3018 RMK AO2 SLP220 T02001072


Station Type Date Time Source
KIPL Decoded METAR 2020/11/28 19:53 UTC NOAA

Imperial, Imperial County Airport, CA, United States (KIPL) 32-50-03N 115-34-43W -15M
Nov 28, 2020 - 02:53 PM EST / 2020.11.28 1953 UTC
Wind: Calm:0
Visibility: 10 mile(s):0
Sky conditions: clear
Temperature: 68.0 F (20.0 C)
Dew Point: 19.0 F (-7.2 C)
Relative Humidity: 15%
Pressure (altimeter): 30.18 in. Hg (1022 hPa)
ob: KIPL 281953Z AUTO 00000KT 10SM CLR 20/M07 A3018 RMK AO2 SLP220 T02001072
cycle: 20

Station Type Date Time Source
KIPL TAF 2020/11/28 18:33 UTC NOAA

TAF KIPL 281730Z 2818/2918 26004KT P6SM SKC
FM282100 36004KT P6SM SKC
FM290100 27005KT P6SM SKC

Example: see airport list